Time;durP1;ratioP1;P1;durP2;ratioP2;P2;SDS_P1;SDS_P2;PMS_P1;PMS_P2;Temp;Humidity;BMP_temperature;BMP_pressure;BME280_temperature;BME280_humidity;BME280_pressure;Samples;Min_cycle;Max_cycle;Signal;HPM_P1;HPM_P2
2022/12/10 00:01:47;;;;;;;3.65;2.70;;;;;;;;;;21153255;28;20078;-64
2022/12/10 00:11:50;;;;;;;4.22;2.72;;;;;;;;;;21170473;28;20051;-64
2022/12/10 00:21:54;;;;;;;4.05;2.13;;;;;;;;;;21170176;28;20090;-63
2022/12/10 00:31:57;;;;;;;4.22;2.83;;;;;;;;;;21160541;28;20061;-63
2022/12/10 00:42:01;;;;;;;2.17;1.80;;;;;;;;;;21168276;28;20051;-63
2022/12/10 00:52:05;;;;;;;4.53;3.00;;;;;;;;;;21166867;28;20040;-65
2022/12/10 01:02:07;;;;;;;4.43;2.28;;;;;;;;;;21166894;28;20491;-64
2022/12/10 01:12:13;;;;;;;2.78;2.47;;;;;;;;;;21165415;28;20438;-63
2022/12/10 01:22:19;;;;;;;3.97;2.60;;;;;;;;;;21163773;28;20073;-64
2022/12/10 01:32:21;;;;;;;6.38;3.35;;;;;;;;;;21163686;28;20075;-63
2022/12/10 01:42:22;;;;;;;6.15;3.63;;;;;;;;;;21163125;28;20044;-63
2022/12/10 01:52:24;;;;;;;4.68;2.95;;;;;;;;;;21162020;28;20085;-63
2022/12/10 02:02:42;;;;;;;2.80;1.80;;;;;;;;;;21162394;28;20154;-63
2022/12/10 02:13:07;;;;;;;3.25;2.38;;;;;;;;;;21161030;28;20047;-64
2022/12/10 02:23:27;;;;;;;3.33;2.30;;;;;;;;;;21161634;28;20484;-62
2022/12/10 02:33:50;;;;;;;20.25;13.73;;;;;;;;;;21175197;28;20056;-62
2022/12/10 02:44:13;;;;;;;3.40;2.42;;;;;;;;;;21179127;28;20388;-62
2022/12/10 02:54:40;;;;;;;5.22;2.55;;;;;;;;;;21176562;28;20074;-63
2022/12/10 03:05:02;;;;;;;4.85;2.53;;;;;;;;;;21175964;28;20090;-63
2022/12/10 03:15:24;;;;;;;5.07;3.83;;;;;;;;;;21160360;28;20502;-65
2022/12/10 03:25:31;;;;;;;6.35;3.60;;;;;;;;;;21176727;28;20050;-63
2022/12/10 03:35:38;;;;;;;5.88;4.28;;;;;;;;;;21174165;28;20406;-62
2022/12/10 03:46:00;;;;;;;6.40;4.55;;;;;;;;;;21171813;28;20063;-63
2022/12/10 03:56:04;;;;;;;5.50;3.83;;;;;;;;;;21172423;28;20134;-63
2022/12/10 04:06:11;;;;;;;2.28;1.55;;;;;;;;;;21174701;28;20101;-63
2022/12/10 04:16:29;;;;;;;2.40;0.90;;;;;;;;;;21152314;28;20081;-63
2022/12/10 04:36:54;;;;;;;0.90;0.70;;;;;;;;;;21167751;28;20426;-62
2022/12/10 04:46:58;;;;;;;0.95;0.80;;;;;;;;;;21167618;28;20044;-63
2022/12/10 04:57:00;;;;;;;6.82;4.78;;;;;;;;;;21167396;28;20063;-63
2022/12/10 05:07:03;;;;;;;9.38;6.25;;;;;;;;;;21165910;28;20078;-63
2022/12/10 05:17:07;;;;;;;9.32;6.57;;;;;;;;;;21165300;28;20079;-62
2022/12/10 05:27:09;;;;;;;10.90;6.65;;;;;;;;;;21165913;28;20043;-64
2022/12/10 05:37:31;;;;;;;15.57;8.50;;;;;;;;;;21165056;28;20063;-62
2022/12/10 05:47:53;;;;;;;13.25;8.13;;;;;;;;;;21164781;28;20050;-62
2022/12/10 05:58:03;;;;;;;10.57;6.85;;;;;;;;;;21163266;28;20043;-63
2022/12/10 06:08:08;;;;;;;10.55;6.82;;;;;;;;;;21143523;28;20044;-63
2022/12/10 06:18:11;;;;;;;11.93;7.57;;;;;;;;;;21161434;28;20048;-63
2022/12/10 06:28:14;;;;;;;14.90;7.72;;;;;;;;;;21160755;28;20043;-63
2022/12/10 06:38:16;;;;;;;13.25;7.60;;;;;;;;;;21159991;28;20130;-63
2022/12/10 06:48:18;;;;;;;10.93;6.38;;;;;;;;;;21161073;28;20044;-62
2022/12/10 06:58:20;;;;;;;12.52;7.68;;;;;;;;;;21160184;28;20479;-63
2022/12/10 07:08:23;;;;;;;13.30;7.40;;;;;;;;;;21161188;28;20467;-64
2022/12/10 07:18:25;;;;;;;12.80;6.88;;;;;;;;;;21168253;28;20051;-64
2022/12/10 07:28:27;;;;;;;14.65;7.13;;;;;;;;;;21174058;28;20129;-63
2022/12/10 07:38:29;;;;;;;13.57;7.68;;;;;;;;;;21173499;28;20443;-63
2022/12/10 07:48:30;;;;;;;14.10;7.07;;;;;;;;;;21173186;28;20161;-63
2022/12/10 07:58:32;;;;;;;16.58;7.75;;;;;;;;;;21171412;28;20063;-62
2022/12/10 08:08:35;;;;;;;15.15;7.80;;;;;;;;;;21170236;28;20054;-61
2022/12/10 08:18:37;;;;;;;16.48;7.63;;;;;;;;;;21169836;28;20044;-63
2022/12/10 08:28:39;;;;;;;16.63;8.05;;;;;;;;;;21169366;28;20044;-63
2022/12/10 08:38:40;;;;;;;15.13;7.93;;;;;;;;;;21168523;28;20488;-62
2022/12/10 08:48:43;;;;;;;18.67;9.38;;;;;;;;;;21169958;28;20089;-61
2022/12/10 08:58:45;;;;;;;19.15;9.10;;;;;;;;;;21166470;28;20052;-60
2022/12/10 09:08:47;;;;;;;17.52;9.10;;;;;;;;;;21166013;28;20043;-60
2022/12/10 09:18:49;;;;;;;17.92;8.75;;;;;;;;;;21164788;28;20087;-64
2022/12/10 09:28:51;;;;;;;17.60;8.50;;;;;;;;;;21164348;28;20070;-61
2022/12/10 09:38:53;;;;;;;13.48;7.03;;;;;;;;;;21162465;28;20501;-61
2022/12/10 09:48:55;;;;;;;10.50;5.75;;;;;;;;;;21163027;28;20055;-63
2022/12/10 09:58:58;;;;;;;10.55;5.75;;;;;;;;;;21153131;28;20069;-62
2022/12/10 10:09:04;;;;;;;7.80;4.78;;;;;;;;;;21155008;28;20044;-65
2022/12/10 10:19:13;;;;;;;17.42;9.98;;;;;;;;;;21162358;28;20203;-64
2022/12/10 10:29:17;;;;;;;11.33;6.80;;;;;;;;;;21163052;28;20466;-61
2022/12/10 10:39:19;;;;;;;5.65;3.53;;;;;;;;;;21162510;28;20494;-62
2022/12/10 10:49:31;;;;;;;5.25;3.50;;;;;;;;;;21166369;28;20100;-60
2022/12/10 10:59:35;;;;;;;5.57;2.50;;;;;;;;;;21177151;28;20047;-62
2022/12/10 11:09:37;;;;;;;6.72;3.97;;;;;;;;;;21176567;28;20484;-61
2022/12/10 11:19:43;;;;;;;7.35;3.00;;;;;;;;;;21175876;28;20050;-61
2022/12/10 11:30:06;;;;;;;2.08;1.08;;;;;;;;;;21174505;28;20117;-61
2022/12/10 11:40:20;;;;;;;0.98;0.60;;;;;;;;;;21174301;28;20448;-60
2022/12/10 11:50:35;;;;;;;1.63;0.98;;;;;;;;;;21174083;28;20190;-61
2022/12/10 12:00:42;;;;;;;0.70;0.38;;;;;;;;;;21170719;28;20062;-60
2022/12/10 12:10:59;;;;;;;1.23;0.60;;;;;;;;;;21173803;28;20044;-60
2022/12/10 12:21:04;;;;;;;1.92;0.80;;;;;;;;;;21147419;27;20044;-61
2022/12/10 12:31:08;;;;;;;2.28;0.63;;;;;;;;;;21171375;27;20047;-59
2022/12/10 12:41:25;;;;;;;0.85;0.43;;;;;;;;;;21166543;28;20086;-62
2022/12/10 12:51:30;;;;;;;1.10;0.60;;;;;;;;;;21167004;28;20127;-62
2022/12/10 13:01:31;;;;;;;1.00;0.50;;;;;;;;;;21148946;28;20093;-62
2022/12/10 13:11:36;;;;;;;1.63;1.00;;;;;;;;;;21167313;28;20053;-61
2022/12/10 13:21:56;;;;;;;2.67;1.00;;;;;;;;;;21146968;28;20126;-62
2022/12/10 13:32:03;;;;;;;1.00;0.47;;;;;;;;;;21164859;28;20131;-62
2022/12/10 13:52:52;;;;;;;0.60;0.30;;;;;;;;;;21163697;28;20043;-61
2022/12/10 14:03:00;;;;;;;1.27;0.60;;;;;;;;;;21163740;28;20151;-61
2022/12/10 14:13:03;;;;;;;2.97;0.68;;;;;;;;;;21162156;28;20050;-61
2022/12/10 14:23:40;;;;;;;1.95;0.73;;;;;;;;;;21165622;28;20043;-62
2022/12/10 14:33:42;;;;;;;0.68;0.50;;;;;;;;;;21181589;28;20126;-63
2022/12/10 14:43:44;;;;;;;2.38;0.95;;;;;;;;;;21179786;28;20058;-63
2022/12/10 14:53:47;;;;;;;0.90;0.40;;;;;;;;;;21179799;28;20515;-60
2022/12/10 15:03:49;;;;;;;1.85;1.00;;;;;;;;;;21179676;28;20501;-61
2022/12/10 15:13:53;;;;;;;2.50;1.45;;;;;;;;;;21177921;28;20059;-61
2022/12/10 15:24:10;;;;;;;2.42;0.63;;;;;;;;;;21169975;28;20158;-62
2022/12/10 15:34:13;;;;;;;2.05;0.80;;;;;;;;;;21174397;28;20063;-62
2022/12/10 15:44:27;;;;;;;2.28;1.00;;;;;;;;;;21175578;28;20464;-61
2022/12/10 15:54:33;;;;;;;1.38;0.93;;;;;;;;;;21173763;28;20043;-61
2022/12/10 16:04:35;;;;;;;1.52;0.95;;;;;;;;;;21174440;28;20048;-63
2022/12/10 16:14:37;;;;;;;2.40;1.58;;;;;;;;;;21173419;28;20118;-61
2022/12/10 16:24:39;;;;;;;2.92;1.20;;;;;;;;;;21171189;28;20127;-61
2022/12/10 16:34:41;;;;;;;3.30;1.85;;;;;;;;;;21169857;28;20047;-61
2022/12/10 16:44:43;;;;;;;3.92;1.35;;;;;;;;;;21170047;28;20122;-61
2022/12/10 16:54:45;;;;;;;7.55;3.58;;;;;;;;;;21169117;28;20484;-62
2022/12/10 17:04:47;;;;;;;4.00;1.70;;;;;;;;;;21169978;28;20051;-62
2022/12/10 17:14:49;;;;;;;2.88;0.98;;;;;;;;;;21168687;28;20411;-63
2022/12/10 17:24:51;;;;;;;1.92;1.20;;;;;;;;;;21167003;28;20063;-63
2022/12/10 17:34:53;;;;;;;3.70;1.00;;;;;;;;;;21167318;28;20476;-64
2022/12/10 17:44:55;;;;;;;1.52;1.02;;;;;;;;;;21157974;28;20096;-66
2022/12/10 17:54:57;;;;;;;3.00;1.15;;;;;;;;;;21165136;28;20138;-67
2022/12/10 18:04:59;;;;;;;2.38;1.00;;;;;;;;;;21163262;28;20090;-67
2022/12/10 18:15:01;;;;;;;3.33;1.38;;;;;;;;;;21163462;28;20058;-66
2022/12/10 18:25:03;;;;;;;2.40;1.58;;;;;;;;;;21164319;28;20512;-68
2022/12/10 18:35:06;;;;;;;3.28;1.58;;;;;;;;;;21163065;28;20056;-68
2022/12/10 18:45:08;;;;;;;2.30;1.40;;;;;;;;;;21144556;28;20083;-66
2022/12/10 18:55:11;;;;;;;3.03;1.52;;;;;;;;;;21163254;28;20087;-66
2022/12/10 19:05:13;;;;;;;3.25;1.75;;;;;;;;;;21142813;28;20381;-66
2022/12/10 19:15:17;;;;;;;6.30;2.35;;;;;;;;;;21172375;28;20056;-66
2022/12/10 19:25:19;;;;;;;6.57;2.60;;;;;;;;;;21159583;28;20471;-65
2022/12/10 19:35:24;;;;;;;5.07;2.55;;;;;;;;;;21176071;28;20534;-68
2022/12/10 19:45:27;;;;;;;6.45;2.35;;;;;;;;;;21175796;28;20122;-67
2022/12/10 19:55:29;;;;;;;5.43;2.75;;;;;;;;;;21174582;28;20587;-67
2022/12/10 20:05:31;;;;;;;5.00;3.03;;;;;;;;;;21174770;28;20047;-67
2022/12/10 20:15:33;;;;;;;5.00;2.55;;;;;;;;;;21172941;28;20126;-66
2022/12/10 20:25:36;;;;;;;4.07;1.90;;;;;;;;;;21172079;28;20055;-67
2022/12/10 20:35:39;;;;;;;5.32;1.90;;;;;;;;;;21177716;28;20476;-66
2022/12/10 20:45:41;;;;;;;4.68;2.50;;;;;;;;;;21172194;28;20050;-66
2022/12/10 20:55:45;;;;;;;5.63;2.75;;;;;;;;;;21169352;28;20461;-67
2022/12/10 21:05:47;;;;;;;4.28;2.17;;;;;;;;;;21168644;28;20145;-65
2022/12/10 21:15:50;;;;;;;7.88;2.55;;;;;;;;;;21168281;28;20093;-65
2022/12/10 21:25:53;;;;;;;5.80;1.70;;;;;;;;;;21169111;28;20476;-67
2022/12/10 21:35:56;;;;;;;3.47;1.40;;;;;;;;;;21156932;28;20048;-65
2022/12/10 21:46:08;;;;;;;3.92;1.30;;;;;;;;;;21165621;28;20054;-64
2022/12/10 21:56:12;;;;;;;4.97;1.65;;;;;;;;;;21165161;28;20055;-65
2022/12/10 22:06:20;;;;;;;3.67;1.27;;;;;;;;;;21146575;28;20052;-64
2022/12/10 22:16:23;;;;;;;3.63;1.25;;;;;;;;;;21164686;28;20097;-64
2022/12/10 22:26:26;;;;;;;4.03;1.20;;;;;;;;;;21164468;28;20100;-64
2022/12/10 22:36:29;;;;;;;7.90;1.58;;;;;;;;;;21161875;28;20071;-64
2022/12/10 22:46:32;;;;;;;5.00;1.30;;;;;;;;;;21151632;28;20043;-66
2022/12/10 22:56:34;;;;;;;3.10;0.88;;;;;;;;;;21179025;28;20503;-67
2022/12/10 23:06:39;;;;;;;5.05;1.10;;;;;;;;;;21160735;28;20077;-68
2022/12/10 23:16:41;;;;;;;4.97;1.15;;;;;;;;;;21179329;28;20056;-65
2022/12/10 23:26:44;;;;;;;5.15;1.63;;;;;;;;;;21178199;28;20048;-67
2022/12/10 23:36:46;;;;;;;3.60;1.33;;;;;;;;;;21175873;28;20052;-65
2022/12/10 23:46:48;;;;;;;3.78;0.80;;;;;;;;;;21176545;28;20510;-66
2022/12/10 23:56:51;;;;;;;5.63;1.13;;;;;;;;;;21156019;28;20078;-66
